sensor_id;sensor_type;location;lat;lon;timestamp;P1;durP1;ratioP1;P2;durP2;ratioP2
59239;SDS011;45010;53.640;10.578;2023-03-30T00:01:23;1.15;;;0.60;;
59239;SDS011;45010;53.640;10.578;2023-03-30T00:04:23;0.63;;;0.63;;
59239;SDS011;45010;53.640;10.578;2023-03-30T00:07:26;0.52;;;0.50;;
59239;SDS011;45010;53.640;10.578;2023-03-30T00:10:26;0.63;;;0.50;;
59239;SDS011;45010;53.640;10.578;2023-03-30T00:13:28;0.75;;;0.55;;
59239;SDS011;45010;53.640;10.578;2023-03-30T00:16:29;0.52;;;0.45;;
59239;SDS011;45010;53.640;10.578;2023-03-30T00:19:30;0.77;;;0.47;;
59239;SDS011;45010;53.640;10.578;2023-03-30T00:22:30;0.60;;;0.60;;
59239;SDS011;45010;53.640;10.578;2023-03-30T00:25:31;0.32;;;0.32;;
59239;SDS011;45010;53.640;10.578;2023-03-30T00:28:31;0.47;;;0.40;;
59239;SDS011;45010;53.640;10.578;2023-03-30T00:31:31;0.47;;;0.45;;
59239;SDS011;45010;53.640;10.578;2023-03-30T00:34:32;1.15;;;0.50;;
59239;SDS011;45010;53.640;10.578;2023-03-30T00:37:32;0.47;;;0.47;;
59239;SDS011;45010;53.640;10.578;2023-03-30T00:40:36;0.52;;;0.50;;
59239;SDS011;45010;53.640;10.578;2023-03-30T00:46:57;0.70;;;0.50;;
59239;SDS011;45010;53.640;10.578;2023-03-30T00:49:57;0.50;;;0.50;;
59239;SDS011;45010;53.640;10.578;2023-03-30T00:52:58;0.38;;;0.30;;
59239;SDS011;45010;53.640;10.578;2023-03-30T00:56:00;0.45;;;0.45;;
59239;SDS011;45010;53.640;10.578;2023-03-30T00:59:02;1.13;;;0.70;;
59239;SDS011;45010;53.640;10.578;2023-03-30T01:02:03;0.50;;;0.50;;
59239;SDS011;45010;53.640;10.578;2023-03-30T01:05:04;0.40;;;0.40;;
59239;SDS011;45010;53.640;10.578;2023-03-30T01:08:05;0.82;;;0.82;;
59239;SDS011;45010;53.640;10.578;2023-03-30T01:11:06;1.67;;;0.57;;
59239;SDS011;45010;53.640;10.578;2023-03-30T01:14:07;0.50;;;0.50;;
59239;SDS011;45010;53.640;10.578;2023-03-30T01:17:33;0.75;;;0.50;;
59239;SDS011;45010;53.640;10.578;2023-03-30T01:35:24;0.47;;;0.40;;
59239;SDS011;45010;53.640;10.578;2023-03-30T01:45:41;0.80;;;0.60;;
59239;SDS011;45010;53.640;10.578;2023-03-30T01:48:48;0.55;;;0.55;;
59239;SDS011;45010;53.640;10.578;2023-03-30T01:55:23;0.50;;;0.32;;
59239;SDS011;45010;53.640;10.578;2023-03-30T01:58:33;0.50;;;0.50;;
59239;SDS011;45010;53.640;10.578;2023-03-30T02:01:38;0.50;;;0.50;;
59239;SDS011;45010;53.640;10.578;2023-03-30T02:04:41;0.28;;;0.28;;
59239;SDS011;45010;53.640;10.578;2023-03-30T02:07:46;0.47;;;0.47;;
59239;SDS011;45010;53.640;10.578;2023-03-30T02:10:52;0.57;;;0.47;;
59239;SDS011;45010;53.640;10.578;2023-03-30T02:13:56;0.60;;;0.43;;
59239;SDS011;45010;53.640;10.578;2023-03-30T02:16:59;0.35;;;0.35;;
59239;SDS011;45010;53.640;10.578;2023-03-30T02:20:05;0.50;;;0.50;;
59239;SDS011;45010;53.640;10.578;2023-03-30T02:23:08;0.40;;;0.40;;
59239;SDS011;45010;53.640;10.578;2023-03-30T02:26:08;0.40;;;0.40;;
59239;SDS011;45010;53.640;10.578;2023-03-30T02:29:10;0.50;;;0.50;;
59239;SDS011;45010;53.640;10.578;2023-03-30T02:32:22;0.60;;;0.60;;
59239;SDS011;45010;53.640;10.578;2023-03-30T02:39:13;0.40;;;0.40;;
59239;SDS011;45010;53.640;10.578;2023-03-30T02:49:23;0.30;;;0.30;;
59239;SDS011;45010;53.640;10.578;2023-03-30T02:55:48;0.75;;;0.63;;
59239;SDS011;45010;53.640;10.578;2023-03-30T02:59:03;0.50;;;0.50;;
59239;SDS011;45010;53.640;10.578;2023-03-30T03:02:11;0.77;;;0.50;;
59239;SDS011;45010;53.640;10.578;2023-03-30T03:05:17;0.45;;;0.45;;
59239;SDS011;45010;53.640;10.578;2023-03-30T03:08:19;0.35;;;0.35;;
59239;SDS011;45010;53.640;10.578;2023-03-30T03:11:23;0.57;;;0.50;;
59239;SDS011;45010;53.640;10.578;2023-03-30T03:14:23;0.47;;;0.47;;
59239;SDS011;45010;53.640;10.578;2023-03-30T03:17:25;0.38;;;0.38;;
59239;SDS011;45010;53.640;10.578;2023-03-30T03:20:28;0.50;;;0.40;;
59239;SDS011;45010;53.640;10.578;2023-03-30T03:23:29;0.45;;;0.45;;
59239;SDS011;45010;53.640;10.578;2023-03-30T03:26:29;0.80;;;0.47;;
59239;SDS011;45010;53.640;10.578;2023-03-30T03:29:30;0.38;;;0.38;;
59239;SDS011;45010;53.640;10.578;2023-03-30T03:32:30;0.57;;;0.40;;
59239;SDS011;45010;53.640;10.578;2023-03-30T03:35:31;0.65;;;0.47;;
59239;SDS011;45010;53.640;10.578;2023-03-30T03:38:31;0.60;;;0.60;;
59239;SDS011;45010;53.640;10.578;2023-03-30T03:41:31;0.85;;;0.55;;
59239;SDS011;45010;53.640;10.578;2023-03-30T03:44:32;2.15;;;0.40;;
59239;SDS011;45010;53.640;10.578;2023-03-30T03:47:33;0.45;;;0.45;;
59239;SDS011;45010;53.640;10.578;2023-03-30T03:50:34;0.50;;;0.50;;
59239;SDS011;45010;53.640;10.578;2023-03-30T03:53:35;1.20;;;0.47;;
59239;SDS011;45010;53.640;10.578;2023-03-30T03:56:35;0.30;;;0.30;;
59239;SDS011;45010;53.640;10.578;2023-03-30T03:59:36;0.40;;;0.40;;
59239;SDS011;45010;53.640;10.578;2023-03-30T04:02:36;0.40;;;0.40;;
59239;SDS011;45010;53.640;10.578;2023-03-30T04:05:36;0.40;;;0.40;;
59239;SDS011;45010;53.640;10.578;2023-03-30T04:08:38;0.57;;;0.43;;
59239;SDS011;45010;53.640;10.578;2023-03-30T04:11:38;0.40;;;0.40;;
59239;SDS011;45010;53.640;10.578;2023-03-30T04:14:39;0.40;;;0.40;;
59239;SDS011;45010;53.640;10.578;2023-03-30T04:17:39;0.47;;;0.47;;
59239;SDS011;45010;53.640;10.578;2023-03-30T04:20:40;0.50;;;0.50;;
59239;SDS011;45010;53.640;10.578;2023-03-30T04:23:40;0.60;;;0.60;;
59239;SDS011;45010;53.640;10.578;2023-03-30T04:26:44;0.40;;;0.40;;
59239;SDS011;45010;53.640;10.578;2023-03-30T04:29:47;0.50;;;0.40;;
59239;SDS011;45010;53.640;10.578;2023-03-30T04:32:48;0.40;;;0.40;;
59239;SDS011;45010;53.640;10.578;2023-03-30T04:36:01;0.50;;;0.50;;
59239;SDS011;45010;53.640;10.578;2023-03-30T04:39:02;0.50;;;0.50;;
59239;SDS011;45010;53.640;10.578;2023-03-30T04:42:05;0.52;;;0.28;;
59239;SDS011;45010;53.640;10.578;2023-03-30T04:45:06;1.58;;;0.50;;
59239;SDS011;45010;53.640;10.578;2023-03-30T04:48:08;0.50;;;0.50;;
59239;SDS011;45010;53.640;10.578;2023-03-30T04:51:08;0.82;;;0.63;;
59239;SDS011;45010;53.640;10.578;2023-03-30T04:54:08;0.70;;;0.50;;
59239;SDS011;45010;53.640;10.578;2023-03-30T04:57:09;1.95;;;0.40;;
59239;SDS011;45010;53.640;10.578;2023-03-30T05:00:10;0.40;;;0.32;;
59239;SDS011;45010;53.640;10.578;2023-03-30T05:03:11;0.63;;;0.50;;
59239;SDS011;45010;53.640;10.578;2023-03-30T05:06:11;0.38;;;0.38;;
59239;SDS011;45010;53.640;10.578;2023-03-30T05:09:12;0.63;;;0.43;;
59239;SDS011;45010;53.640;10.578;2023-03-30T05:12:13;0.82;;;0.50;;
59239;SDS011;45010;53.640;10.578;2023-03-30T05:15:14;0.43;;;0.40;;
59239;SDS011;45010;53.640;10.578;2023-03-30T05:18:15;1.52;;;0.60;;
59239;SDS011;45010;53.640;10.578;2023-03-30T05:21:15;0.57;;;0.55;;
59239;SDS011;45010;53.640;10.578;2023-03-30T05:24:15;0.80;;;0.57;;
59239;SDS011;45010;53.640;10.578;2023-03-30T05:27:16;0.38;;;0.30;;
59239;SDS011;45010;53.640;10.578;2023-03-30T05:30:16;0.55;;;0.38;;
59239;SDS011;45010;53.640;10.578;2023-03-30T05:33:16;0.65;;;0.50;;
59239;SDS011;45010;53.640;10.578;2023-03-30T05:36:17;0.50;;;0.50;;
59239;SDS011;45010;53.640;10.578;2023-03-30T05:39:17;0.52;;;0.52;;
59239;SDS011;45010;53.640;10.578;2023-03-30T05:42:18;1.77;;;0.50;;
59239;SDS011;45010;53.640;10.578;2023-03-30T05:45:18;0.43;;;0.43;;
59239;SDS011;45010;53.640;10.578;2023-03-30T05:48:18;0.68;;;0.40;;
59239;SDS011;45010;53.640;10.578;2023-03-30T05:51:18;1.48;;;0.70;;
59239;SDS011;45010;53.640;10.578;2023-03-30T05:54:19;0.80;;;0.38;;
59239;SDS011;45010;53.640;10.578;2023-03-30T05:57:19;0.75;;;0.50;;
59239;SDS011;45010;53.640;10.578;2023-03-30T06:00:20;0.63;;;0.45;;
59239;SDS011;45010;53.640;10.578;2023-03-30T06:03:21;0.95;;;0.85;;
59239;SDS011;45010;53.640;10.578;2023-03-30T06:06:22;1.45;;;0.85;;
59239;SDS011;45010;53.640;10.578;2023-03-30T06:09:22;2.20;;;0.40;;
59239;SDS011;45010;53.640;10.578;2023-03-30T06:12:24;1.85;;;0.80;;
59239;SDS011;45010;53.640;10.578;2023-03-30T06:15:25;1.75;;;0.80;;
59239;SDS011;45010;53.640;10.578;2023-03-30T06:18:26;3.13;;;0.98;;
59239;SDS011;45010;53.640;10.578;2023-03-30T06:21:26;0.93;;;0.82;;
59239;SDS011;45010;53.640;10.578;2023-03-30T06:24:27;1.20;;;0.90;;
59239;SDS011;45010;53.640;10.578;2023-03-30T06:27:27;2.83;;;0.90;;
59239;SDS011;45010;53.640;10.578;2023-03-30T06:30:30;3.28;;;1.10;;
59239;SDS011;45010;53.640;10.578;2023-03-30T06:33:31;3.33;;;0.90;;
59239;SDS011;45010;53.640;10.578;2023-03-30T06:36:31;3.20;;;1.20;;
59239;SDS011;45010;53.640;10.578;2023-03-30T06:39:32;2.20;;;1.08;;
59239;SDS011;45010;53.640;10.578;2023-03-30T06:42:36;1.17;;;1.02;;
59239;SDS011;45010;53.640;10.578;2023-03-30T06:45:36;4.28;;;0.93;;
59239;SDS011;45010;53.640;10.578;2023-03-30T06:48:37;2.08;;;1.02;;
59239;SDS011;45010;53.640;10.578;2023-03-30T06:51:37;1.30;;;0.90;;
59239;SDS011;45010;53.640;10.578;2023-03-30T06:54:37;2.50;;;0.90;;
59239;SDS011;45010;53.640;10.578;2023-03-30T06:57:38;1.02;;;0.80;;
59239;SDS011;45010;53.640;10.578;2023-03-30T07:00:38;1.63;;;0.93;;
59239;SDS011;45010;53.640;10.578;2023-03-30T07:03:38;1.33;;;1.00;;
59239;SDS011;45010;53.640;10.578;2023-03-30T07:06:40;1.48;;;0.80;;
59239;SDS011;45010;53.640;10.578;2023-03-30T07:09:40;2.78;;;0.80;;
59239;SDS011;45010;53.640;10.578;2023-03-30T07:12:42;2.50;;;1.10;;
59239;SDS011;45010;53.640;10.578;2023-03-30T07:15:43;1.02;;;0.82;;
59239;SDS011;45010;53.640;10.578;2023-03-30T07:18:44;1.48;;;0.80;;
59239;SDS011;45010;53.640;10.578;2023-03-30T07:21:45;1.92;;;1.00;;
59239;SDS011;45010;53.640;10.578;2023-03-30T07:24:45;1.25;;;0.80;;
59239;SDS011;45010;53.640;10.578;2023-03-30T07:27:45;1.83;;;1.08;;
59239;SDS011;45010;53.640;10.578;2023-03-30T07:30:46;1.65;;;0.88;;
59239;SDS011;45010;53.640;10.578;2023-03-30T07:33:47;4.68;;;0.88;;
59239;SDS011;45010;53.640;10.578;2023-03-30T07:36:47;1.40;;;0.98;;
59239;SDS011;45010;53.640;10.578;2023-03-30T07:39:48;2.40;;;1.00;;
59239;SDS011;45010;53.640;10.578;2023-03-30T07:42:48;3.13;;;1.10;;
59239;SDS011;45010;53.640;10.578;2023-03-30T07:45:49;3.50;;;1.52;;
59239;SDS011;45010;53.640;10.578;2023-03-30T07:48:49;3.53;;;1.02;;
59239;SDS011;45010;53.640;10.578;2023-03-30T07:51:52;1.27;;;1.00;;
59239;SDS011;45010;53.640;10.578;2023-03-30T07:54:52;3.00;;;1.00;;
59239;SDS011;45010;53.640;10.578;2023-03-30T07:57:56;3.22;;;1.00;;
59239;SDS011;45010;53.640;10.578;2023-03-30T08:00:56;2.22;;;1.08;;
59239;SDS011;45010;53.640;10.578;2023-03-30T08:03:57;4.13;;;1.38;;
59239;SDS011;45010;53.640;10.578;2023-03-30T08:06:57;2.17;;;1.10;;
59239;SDS011;45010;53.640;10.578;2023-03-30T08:09:58;5.85;;;1.08;;
59239;SDS011;45010;53.640;10.578;2023-03-30T08:12:58;2.70;;;1.42;;
59239;SDS011;45010;53.640;10.578;2023-03-30T08:15:58;2.92;;;1.20;;
59239;SDS011;45010;53.640;10.578;2023-03-30T08:18:59;2.33;;;1.15;;
59239;SDS011;45010;53.640;10.578;2023-03-30T08:21:59;2.65;;;1.00;;
59239;SDS011;45010;53.640;10.578;2023-03-30T08:25:01;3.20;;;1.00;;
59239;SDS011;45010;53.640;10.578;2023-03-30T08:28:01;2.50;;;1.30;;
59239;SDS011;45010;53.640;10.578;2023-03-30T08:31:06;3.70;;;1.30;;
59239;SDS011;45010;53.640;10.578;2023-03-30T08:34:07;3.90;;;1.30;;
59239;SDS011;45010;53.640;10.578;2023-03-30T08:37:07;3.13;;;1.10;;
59239;SDS011;45010;53.640;10.578;2023-03-30T08:40:09;2.35;;;1.30;;
59239;SDS011;45010;53.640;10.578;2023-03-30T08:43:14;1.48;;;1.10;;
59239;SDS011;45010;53.640;10.578;2023-03-30T08:46:28;2.00;;;1.02;;
59239;SDS011;45010;53.640;10.578;2023-03-30T08:49:31;1.85;;;0.90;;
59239;SDS011;45010;53.640;10.578;2023-03-30T08:52:34;1.40;;;0.82;;
59239;SDS011;45010;53.640;10.578;2023-03-30T08:55:45;4.57;;;1.77;;
59239;SDS011;45010;53.640;10.578;2023-03-30T08:59:15;3.45;;;1.75;;
59239;SDS011;45010;53.640;10.578;2023-03-30T09:02:27;2.60;;;1.13;;
59239;SDS011;45010;53.640;10.578;2023-03-30T09:05:31;2.25;;;0.90;;
59239;SDS011;45010;53.640;10.578;2023-03-30T09:08:36;2.08;;;1.30;;
59239;SDS011;45010;53.640;10.578;2023-03-30T09:11:37;1.98;;;1.38;;
59239;SDS011;45010;53.640;10.578;2023-03-30T09:14:39;1.80;;;0.90;;
59239;SDS011;45010;53.640;10.578;2023-03-30T09:17:46;1.85;;;1.20;;
59239;SDS011;45010;53.640;10.578;2023-03-30T09:20:50;2.10;;;1.00;;
59239;SDS011;45010;53.640;10.578;2023-03-30T09:23:55;3.08;;;1.30;;
59239;SDS011;45010;53.640;10.578;2023-03-30T09:26:59;2.03;;;0.95;;
59239;SDS011;45010;53.640;10.578;2023-03-30T09:30:14;1.77;;;1.05;;
59239;SDS011;45010;53.640;10.578;2023-03-30T09:36:33;1.88;;;0.93;;
59239;SDS011;45010;53.640;10.578;2023-03-30T09:39:36;1.25;;;0.88;;
59239;SDS011;45010;53.640;10.578;2023-03-30T09:42:45;2.40;;;1.10;;
59239;SDS011;45010;53.640;10.578;2023-03-30T09:46:01;1.95;;;0.90;;
59239;SDS011;45010;53.640;10.578;2023-03-30T09:49:15;1.13;;;0.90;;
59239;SDS011;45010;53.640;10.578;2023-03-30T09:52:20;2.13;;;0.85;;
59239;SDS011;45010;53.640;10.578;2023-03-30T09:55:24;2.10;;;1.05;;
59239;SDS011;45010;53.640;10.578;2023-03-30T09:58:30;1.38;;;1.05;;
59239;SDS011;45010;53.640;10.578;2023-03-30T10:01:35;1.30;;;0.88;;
59239;SDS011;45010;53.640;10.578;2023-03-30T10:08:18;2.25;;;1.08;;
59239;SDS011;45010;53.640;10.578;2023-03-30T10:11:33;1.73;;;1.05;;
59239;SDS011;45010;53.640;10.578;2023-03-30T10:14:36;2.90;;;1.23;;
59239;SDS011;45010;53.640;10.578;2023-03-30T10:17:37;1.83;;;0.90;;
59239;SDS011;45010;53.640;10.578;2023-03-30T10:20:39;2.05;;;1.20;;
59239;SDS011;45010;53.640;10.578;2023-03-30T10:23:41;2.08;;;1.20;;
59239;SDS011;45010;53.640;10.578;2023-03-30T10:26:44;1.35;;;1.00;;
59239;SDS011;45010;53.640;10.578;2023-03-30T10:29:46;2.65;;;1.05;;
59239;SDS011;45010;53.640;10.578;2023-03-30T10:32:49;5.28;;;1.10;;
59239;SDS011;45010;53.640;10.578;2023-03-30T10:35:51;2.00;;;1.10;;
59239;SDS011;45010;53.640;10.578;2023-03-30T10:38:57;5.07;;;1.30;;
59239;SDS011;45010;53.640;10.578;2023-03-30T10:42:22;2.97;;;1.45;;
59239;SDS011;45010;53.640;10.578;2023-03-30T10:45:26;2.67;;;1.20;;
59239;SDS011;45010;53.640;10.578;2023-03-30T10:58:30;2.88;;;1.00;;
59239;SDS011;45010;53.640;10.578;2023-03-30T11:01:50;3.70;;;1.40;;
59239;SDS011;45010;53.640;10.578;2023-03-30T11:05:15;3.28;;;1.17;;
59239;SDS011;45010;53.640;10.578;2023-03-30T11:11:36;2.47;;;0.73;;
59239;SDS011;45010;53.640;10.578;2023-03-30T11:18:08;3.13;;;1.10;;
59239;SDS011;45010;53.640;10.578;2023-03-30T11:24:40;6.57;;;1.27;;
59239;SDS011;45010;53.640;10.578;2023-03-30T11:27:45;3.05;;;0.80;;
59239;SDS011;45010;53.640;10.578;2023-03-30T11:31:29;1.33;;;0.88;;
59239;SDS011;45010;53.640;10.578;2023-03-30T11:41:34;2.15;;;0.82;;
59239;SDS011;45010;53.640;10.578;2023-03-30T11:44:39;1.90;;;0.82;;
59239;SDS011;45010;53.640;10.578;2023-03-30T11:47:46;1.67;;;1.00;;
59239;SDS011;45010;53.640;10.578;2023-03-30T11:54:53;3.55;;;1.13;;
59239;SDS011;45010;53.640;10.578;2023-03-30T12:04:55;2.72;;;1.00;;
59239;SDS011;45010;53.640;10.578;2023-03-30T12:18:02;8.07;;;0.95;;
59239;SDS011;45010;53.640;10.578;2023-03-30T12:21:27;1.60;;;0.80;;
59239;SDS011;45010;53.640;10.578;2023-03-30T12:27:51;1.42;;;0.70;;
59239;SDS011;45010;53.640;10.578;2023-03-30T12:31:02;1.27;;;0.70;;
59239;SDS011;45010;53.640;10.578;2023-03-30T12:34:06;1.30;;;0.82;;
59239;SDS011;45010;53.640;10.578;2023-03-30T12:37:11;2.30;;;1.10;;
59239;SDS011;45010;53.640;10.578;2023-03-30T12:40:16;2.42;;;0.85;;
59239;SDS011;45010;53.640;10.578;2023-03-30T12:43:28;3.90;;;1.08;;
59239;SDS011;45010;53.640;10.578;2023-03-30T12:49:53;1.38;;;0.68;;
59239;SDS011;45010;53.640;10.578;2023-03-30T13:06:36;4.43;;;0.93;;
59239;SDS011;45010;53.640;10.578;2023-03-30T13:09:51;1.80;;;0.85;;
59239;SDS011;45010;53.640;10.578;2023-03-30T13:12:55;3.28;;;1.35;;
59239;SDS011;45010;53.640;10.578;2023-03-30T13:16:00;1.35;;;0.70;;
59239;SDS011;45010;53.640;10.578;2023-03-30T13:19:19;2.53;;;0.70;;
59239;SDS011;45010;53.640;10.578;2023-03-30T13:22:25;1.83;;;0.90;;
59239;SDS011;45010;53.640;10.578;2023-03-30T13:25:35;3.17;;;0.80;;
59239;SDS011;45010;53.640;10.578;2023-03-30T13:31:59;2.55;;;0.93;;
59239;SDS011;45010;53.640;10.578;2023-03-30T13:45:37;3.08;;;1.58;;
59239;SDS011;45010;53.640;10.578;2023-03-30T13:52:37;2.10;;;1.17;;
59239;SDS011;45010;53.640;10.578;2023-03-30T13:55:41;3.22;;;0.75;;
59239;SDS011;45010;53.640;10.578;2023-03-30T13:58:50;2.88;;;0.80;;
59239;SDS011;45010;53.640;10.578;2023-03-30T14:02:05;2.95;;;0.82;;
59239;SDS011;45010;53.640;10.578;2023-03-30T14:05:19;3.00;;;1.00;;
59239;SDS011;45010;53.640;10.578;2023-03-30T14:08:21;2.53;;;0.80;;
59239;SDS011;45010;53.640;10.578;2023-03-30T14:11:31;3.03;;;0.70;;
59239;SDS011;45010;53.640;10.578;2023-03-30T14:17:49;2.85;;;0.80;;
59239;SDS011;45010;53.640;10.578;2023-03-30T14:20:56;2.63;;;0.85;;
59239;SDS011;45010;53.640;10.578;2023-03-30T14:24:00;2.50;;;0.70;;
59239;SDS011;45010;53.640;10.578;2023-03-30T14:27:21;2.35;;;0.80;;
59239;SDS011;45010;53.640;10.578;2023-03-30T14:30:25;1.73;;;0.50;;
59239;SDS011;45010;53.640;10.578;2023-03-30T14:33:28;3.28;;;0.80;;
59239;SDS011;45010;53.640;10.578;2023-03-30T14:36:29;2.50;;;0.80;;
59239;SDS011;45010;53.640;10.578;2023-03-30T14:39:30;2.33;;;1.02;;
59239;SDS011;45010;53.640;10.578;2023-03-30T14:42:32;3.80;;;0.82;;
59239;SDS011;45010;53.640;10.578;2023-03-30T14:45:33;3.05;;;0.85;;
59239;SDS011;45010;53.640;10.578;2023-03-30T14:48:37;2.10;;;0.80;;
59239;SDS011;45010;53.640;10.578;2023-03-30T14:51:41;2.17;;;0.80;;
59239;SDS011;45010;53.640;10.578;2023-03-30T14:54:45;1.70;;;0.65;;
59239;SDS011;45010;53.640;10.578;2023-03-30T14:57:49;2.38;;;0.80;;
59239;SDS011;45010;53.640;10.578;2023-03-30T15:00:53;3.33;;;0.73;;
59239;SDS011;45010;53.640;10.578;2023-03-30T15:03:58;4.90;;;0.90;;
59239;SDS011;45010;53.640;10.578;2023-03-30T15:07:04;3.20;;;0.70;;
59239;SDS011;45010;53.640;10.578;2023-03-30T15:10:04;3.97;;;1.00;;
59239;SDS011;45010;53.640;10.578;2023-03-30T15:13:05;2.70;;;0.70;;
59239;SDS011;45010;53.640;10.578;2023-03-30T15:16:06;1.92;;;0.90;;
59239;SDS011;45010;53.640;10.578;2023-03-30T15:19:11;3.53;;;0.63;;
59239;SDS011;45010;53.640;10.578;2023-03-30T15:22:27;2.50;;;0.70;;
59239;SDS011;45010;53.640;10.578;2023-03-30T15:25:32;2.72;;;1.10;;
59239;SDS011;45010;53.640;10.578;2023-03-30T15:28:38;2.15;;;0.82;;
59239;SDS011;45010;53.640;10.578;2023-03-30T15:31:43;3.25;;;0.70;;
59239;SDS011;45010;53.640;10.578;2023-03-30T15:38:29;3.22;;;0.70;;
59239;SDS011;45010;53.640;10.578;2023-03-30T15:41:50;1.55;;;0.52;;
59239;SDS011;45010;53.640;10.578;2023-03-30T15:45:08;1.48;;;0.80;;
59239;SDS011;45010;53.640;10.578;2023-03-30T15:48:10;2.58;;;0.93;;
59239;SDS011;45010;53.640;10.578;2023-03-30T15:51:14;2.00;;;0.60;;
59239;SDS011;45010;53.640;10.578;2023-03-30T15:54:21;1.55;;;0.88;;
59239;SDS011;45010;53.640;10.578;2023-03-30T15:57:29;2.78;;;0.93;;
59239;SDS011;45010;53.640;10.578;2023-03-30T16:00:30;3.08;;;0.88;;
59239;SDS011;45010;53.640;10.578;2023-03-30T16:03:35;2.00;;;0.70;;
59239;SDS011;45010;53.640;10.578;2023-03-30T16:06:39;2.25;;;0.80;;
59239;SDS011;45010;53.640;10.578;2023-03-30T16:09:40;2.60;;;0.70;;
59239;SDS011;45010;53.640;10.578;2023-03-30T16:12:41;3.65;;;0.90;;
59239;SDS011;45010;53.640;10.578;2023-03-30T16:15:43;2.88;;;0.70;;
59239;SDS011;45010;53.640;10.578;2023-03-30T16:18:44;2.65;;;0.85;;
59239;SDS011;45010;53.640;10.578;2023-03-30T16:21:44;2.53;;;0.63;;
59239;SDS011;45010;53.640;10.578;2023-03-30T16:24:44;2.25;;;0.70;;
59239;SDS011;45010;53.640;10.578;2023-03-30T16:27:45;1.60;;;0.70;;
59239;SDS011;45010;53.640;10.578;2023-03-30T16:30:45;3.40;;;1.13;;
59239;SDS011;45010;53.640;10.578;2023-03-30T16:33:48;5.40;;;1.40;;
59239;SDS011;45010;53.640;10.578;2023-03-30T16:36:49;3.80;;;1.73;;
59239;SDS011;45010;53.640;10.578;2023-03-30T16:39:50;6.97;;;1.42;;
59239;SDS011;45010;53.640;10.578;2023-03-30T16:42:50;5.32;;;1.70;;
59239;SDS011;45010;53.640;10.578;2023-03-30T16:45:50;3.63;;;1.30;;
59239;SDS011;45010;53.640;10.578;2023-03-30T16:48:51;3.00;;;1.40;;
59239;SDS011;45010;53.640;10.578;2023-03-30T16:51:51;4.10;;;1.23;;
59239;SDS011;45010;53.640;10.578;2023-03-30T16:54:52;3.20;;;1.33;;
59239;SDS011;45010;53.640;10.578;2023-03-30T16:57:52;3.35;;;1.20;;
59239;SDS011;45010;53.640;10.578;2023-03-30T17:00:53;2.90;;;1.00;;
59239;SDS011;45010;53.640;10.578;2023-03-30T17:04:01;3.28;;;1.30;;
59239;SDS011;45010;53.640;10.578;2023-03-30T17:07:08;5.85;;;1.65;;
59239;SDS011;45010;53.640;10.578;2023-03-30T17:10:25;1.77;;;1.10;;
59239;SDS011;45010;53.640;10.578;2023-03-30T17:13:28;2.42;;;1.15;;
59239;SDS011;45010;53.640;10.578;2023-03-30T17:16:29;2.63;;;1.10;;
59239;SDS011;45010;53.640;10.578;2023-03-30T17:19:30;3.60;;;1.10;;
59239;SDS011;45010;53.640;10.578;2023-03-30T17:22:30;3.92;;;1.02;;
59239;SDS011;45010;53.640;10.578;2023-03-30T17:25:31;4.80;;;1.42;;
59239;SDS011;45010;53.640;10.578;2023-03-30T17:28:32;1.92;;;1.10;;
59239;SDS011;45010;53.640;10.578;2023-03-30T17:31:34;3.15;;;1.20;;
59239;SDS011;45010;53.640;10.578;2023-03-30T17:34:35;2.13;;;0.98;;
59239;SDS011;45010;53.640;10.578;2023-03-30T17:37:35;2.72;;;1.15;;
59239;SDS011;45010;53.640;10.578;2023-03-30T17:40:35;2.40;;;1.00;;
59239;SDS011;45010;53.640;10.578;2023-03-30T17:43:38;4.35;;;1.35;;
59239;SDS011;45010;53.640;10.578;2023-03-30T17:46:38;3.28;;;1.00;;
59239;SDS011;45010;53.640;10.578;2023-03-30T17:49:41;5.20;;;1.35;;
59239;SDS011;45010;53.640;10.578;2023-03-30T17:52:41;2.60;;;1.02;;
59239;SDS011;45010;53.640;10.578;2023-03-30T17:55:45;2.63;;;0.85;;
59239;SDS011;45010;53.640;10.578;2023-03-30T17:58:48;4.57;;;1.30;;
59239;SDS011;45010;53.640;10.578;2023-03-30T18:01:48;3.88;;;0.82;;
59239;SDS011;45010;53.640;10.578;2023-03-30T18:04:49;2.08;;;0.90;;
59239;SDS011;45010;53.640;10.578;2023-03-30T18:07:49;3.38;;;1.10;;
59239;SDS011;45010;53.640;10.578;2023-03-30T18:10:57;2.33;;;0.85;;
59239;SDS011;45010;53.640;10.578;2023-03-30T18:13:58;3.45;;;1.13;;
59239;SDS011;45010;53.640;10.578;2023-03-30T18:16:58;2.10;;;1.00;;
59239;SDS011;45010;53.640;10.578;2023-03-30T18:19:59;2.97;;;1.00;;
59239;SDS011;45010;53.640;10.578;2023-03-30T18:23:00;1.48;;;0.80;;
59239;SDS011;45010;53.640;10.578;2023-03-30T18:26:01;2.83;;;1.35;;
59239;SDS011;45010;53.640;10.578;2023-03-30T18:29:09;3.08;;;1.35;;
59239;SDS011;45010;53.640;10.578;2023-03-30T18:32:18;3.15;;;1.20;;
59239;SDS011;45010;53.640;10.578;2023-03-30T18:35:20;2.83;;;1.05;;
59239;SDS011;45010;53.640;10.578;2023-03-30T18:38:21;3.70;;;1.30;;
59239;SDS011;45010;53.640;10.578;2023-03-30T18:41:24;4.38;;;1.33;;
59239;SDS011;45010;53.640;10.578;2023-03-30T18:44:24;1.75;;;0.95;;
59239;SDS011;45010;53.640;10.578;2023-03-30T18:47:25;3.67;;;1.05;;
59239;SDS011;45010;53.640;10.578;2023-03-30T18:53:31;1.88;;;1.08;;
59239;SDS011;45010;53.640;10.578;2023-03-30T18:56:32;3.65;;;1.10;;
59239;SDS011;45010;53.640;10.578;2023-03-30T18:59:32;3.35;;;1.00;;
59239;SDS011;45010;53.640;10.578;2023-03-30T19:02:33;2.10;;;0.90;;
59239;SDS011;45010;53.640;10.578;2023-03-30T19:05:33;2.67;;;1.08;;
59239;SDS011;45010;53.640;10.578;2023-03-30T19:08:34;4.07;;;1.42;;
59239;SDS011;45010;53.640;10.578;2023-03-30T19:11:34;2.47;;;0.93;;
59239;SDS011;45010;53.640;10.578;2023-03-30T19:14:34;3.80;;;1.17;;
59239;SDS011;45010;53.640;10.578;2023-03-30T19:17:35;2.10;;;0.90;;
59239;SDS011;45010;53.640;10.578;2023-03-30T19:20:36;2.90;;;1.00;;
59239;SDS011;45010;53.640;10.578;2023-03-30T19:23:38;2.78;;;1.00;;
59239;SDS011;45010;53.640;10.578;2023-03-30T19:26:39;3.63;;;0.93;;
59239;SDS011;45010;53.640;10.578;2023-03-30T19:29:39;2.42;;;0.98;;
59239;SDS011;45010;53.640;10.578;2023-03-30T19:32:40;1.35;;;0.82;;
59239;SDS011;45010;53.640;10.578;2023-03-30T19:35:41;2.38;;;1.13;;
59239;SDS011;45010;53.640;10.578;2023-03-30T19:38:43;2.10;;;0.90;;
59239;SDS011;45010;53.640;10.578;2023-03-30T19:41:44;1.85;;;0.95;;
59239;SDS011;45010;53.640;10.578;2023-03-30T19:44:45;1.83;;;0.93;;
59239;SDS011;45010;53.640;10.578;2023-03-30T19:47:45;1.95;;;0.90;;
59239;SDS011;45010;53.640;10.578;2023-03-30T19:50:46;2.85;;;1.10;;
59239;SDS011;45010;53.640;10.578;2023-03-30T19:53:47;2.80;;;0.82;;
59239;SDS011;45010;53.640;10.578;2023-03-30T19:56:47;3.17;;;1.05;;
59239;SDS011;45010;53.640;10.578;2023-03-30T19:59:48;1.90;;;0.90;;
59239;SDS011;45010;53.640;10.578;2023-03-30T20:02:49;1.50;;;0.80;;
59239;SDS011;45010;53.640;10.578;2023-03-30T20:05:51;1.75;;;0.95;;
59239;SDS011;45010;53.640;10.578;2023-03-30T20:08:52;1.45;;;0.98;;
59239;SDS011;45010;53.640;10.578;2023-03-30T20:11:54;2.00;;;0.90;;
59239;SDS011;45010;53.640;10.578;2023-03-30T20:14:54;1.95;;;0.90;;
59239;SDS011;45010;53.640;10.578;2023-03-30T20:17:57;2.30;;;0.90;;
59239;SDS011;45010;53.640;10.578;2023-03-30T20:21:01;2.28;;;1.00;;
59239;SDS011;45010;53.640;10.578;2023-03-30T20:24:02;2.22;;;0.80;;
59239;SDS011;45010;53.640;10.578;2023-03-30T20:27:02;2.13;;;0.65;;
59239;SDS011;45010;53.640;10.578;2023-03-30T20:30:03;2.17;;;0.90;;
59239;SDS011;45010;53.640;10.578;2023-03-30T20:33:04;1.55;;;0.70;;